createdAt,value
2018-06-16T00:00:08.934Z,16.04
2018-06-16T00:01:08.928Z,16.01
2018-06-16T00:02:08.921Z,15.97
2018-06-16T00:03:08.918Z,15.98
2018-06-16T00:04:08.910Z,16.04
2018-06-16T00:05:08.904Z,16.00
2018-06-16T00:06:08.897Z,16.01
2018-06-16T00:07:08.892Z,16.00
2018-06-16T00:08:08.886Z,16.01
2018-06-16T00:09:08.885Z,16.05
2018-06-16T00:10:08.874Z,16.00
2018-06-16T00:11:08.868Z,16.01
2018-06-16T00:12:09.065Z,16.04
2018-06-16T00:13:08.857Z,16.00
2018-06-16T00:14:08.850Z,16.02
2018-06-16T00:15:08.844Z,16.09
2018-06-16T00:16:08.838Z,16.00
2018-06-16T00:17:08.833Z,15.98
2018-06-16T00:18:08.826Z,15.92
2018-06-16T00:19:08.825Z,15.94
2018-06-16T00:20:08.814Z,15.94
2018-06-16T00:21:08.808Z,15.98
2018-06-16T00:22:08.812Z,15.83
2018-06-16T00:23:08.796Z,15.84
2018-06-16T00:24:08.790Z,15.84
2018-06-16T00:25:08.784Z,15.94
2018-06-16T00:26:08.781Z,15.98
2018-06-16T00:27:08.771Z,15.98
2018-06-16T00:28:08.765Z,15.82
2018-06-16T00:29:08.766Z,15.94
2018-06-16T00:30:08.759Z,15.82
2018-06-16T00:31:08.746Z,15.90
2018-06-16T00:32:08.746Z,15.88
2018-06-16T00:33:08.742Z,15.76
2018-06-16T00:34:08.729Z,15.77
2018-06-16T00:35:08.722Z,15.82
2018-06-16T00:36:08.717Z,15.76
2018-06-16T00:37:08.711Z,15.80
2018-06-16T00:38:08.703Z,15.62
2018-06-16T00:39:08.697Z,15.76
2018-06-16T00:40:08.692Z,15.62
2018-06-16T00:41:08.696Z,15.61
2018-06-16T00:42:08.680Z,15.64
2018-06-16T00:43:08.673Z,15.64
2018-06-16T00:44:08.668Z,15.67
2018-06-16T00:45:08.661Z,15.70
2018-06-16T00:46:08.654Z,15.64
2018-06-16T00:47:08.653Z,15.57
2018-06-16T00:48:08.644Z,15.52
2018-06-16T00:49:08.636Z,15.57
2018-06-16T00:50:08.629Z,15.57
2018-06-16T00:51:08.627Z,15.54
2018-06-16T00:52:08.619Z,15.62
2018-06-16T00:53:08.617Z,15.55
2018-06-16T00:54:08.604Z,15.55
2018-06-16T00:55:08.598Z,15.57
2018-06-16T00:56:08.591Z,15.51
2018-06-16T00:57:08.589Z,15.62
2018-06-16T00:58:08.579Z,15.58
2018-06-16T00:59:08.573Z,15.59
2018-06-16T01:00:08.568Z,15.47
2018-06-16T01:01:08.572Z,15.43
2018-06-16T01:02:08.554Z,15.49
2018-06-16T01:03:08.549Z,15.51
2018-06-16T01:04:08.541Z,15.49
2018-06-16T01:05:08.535Z,15.40
2018-06-16T01:06:08.528Z,15.47
2018-06-16T01:07:08.521Z,15.49
2018-06-16T01:08:08.517Z,15.44
2018-06-16T01:09:08.509Z,15.47
2018-06-16T01:10:08.502Z,15.51
2018-06-16T01:11:08.499Z,15.39
2018-06-16T01:12:08.490Z,15.37
2018-06-16T01:13:08.491Z,15.39
2018-06-16T01:14:08.477Z,15.43
2018-06-16T01:15:08.470Z,15.42
2018-06-16T01:16:08.464Z,15.40
2018-06-16T01:17:08.460Z,15.42
2018-06-16T01:18:08.451Z,15.51
2018-06-16T01:19:08.444Z,15.47
2018-06-16T01:20:08.438Z,15.51
2018-06-16T01:21:08.433Z,15.51
2018-06-16T01:22:08.425Z,15.43
2018-06-16T01:23:08.419Z,15.42
2018-06-16T01:24:08.414Z,15.47
2018-06-16T01:25:08.407Z,15.42
2018-06-16T01:26:08.399Z,15.42
2018-06-16T01:27:08.393Z,15.39
2018-06-16T01:28:08.387Z,15.37
2018-06-16T01:29:08.381Z,15.28
2018-06-16T01:30:08.381Z,15.27
2018-06-16T01:31:08.368Z,15.21
2018-06-16T01:32:08.362Z,15.18
2018-06-16T01:33:08.356Z,15.17
2018-06-16T01:34:08.348Z,15.15
2018-06-16T01:35:08.347Z,15.11
2018-06-16T01:36:08.336Z,15.15
2018-06-16T01:37:08.333Z,15.07
2018-06-16T01:38:08.323Z,15.02
2018-06-16T01:39:08.319Z,15.00
2018-06-16T01:40:08.312Z,15.06
2018-06-16T01:41:08.305Z,14.99
2018-06-16T01:42:08.298Z,15.07
2018-06-16T01:43:08.291Z,14.99
2018-06-16T01:44:08.285Z,14.97
2018-06-16T01:45:08.279Z,14.99
2018-06-16T01:46:08.477Z,15.00
2018-06-16T01:47:08.266Z,14.99
2018-06-16T01:48:08.260Z,14.96
2018-06-16T01:49:08.254Z,14.92
2018-06-16T01:50:08.248Z,15.03
2018-06-16T01:51:08.240Z,14.92
2018-06-16T01:52:08.234Z,14.88
2018-06-16T01:53:08.227Z,14.97
2018-06-16T01:54:08.221Z,14.97
2018-06-16T01:55:08.215Z,14.91
2018-06-16T01:56:08.208Z,15.00
2018-06-16T01:57:08.204Z,15.04
2018-06-16T01:58:08.197Z,15.04
2018-06-16T01:59:08.189Z,15.06
2018-06-16T02:00:08.183Z,15.00
2018-06-16T02:01:08.184Z,14.96
2018-06-16T02:02:08.171Z,15.00
2018-06-16T02:03:08.163Z,14.99
2018-06-16T02:04:08.157Z,14.96
2018-06-16T02:05:08.152Z,14.99
2018-06-16T02:06:08.144Z,14.96
2018-06-16T02:07:08.137Z,14.91
2018-06-16T02:08:08.131Z,14.96
2018-06-16T02:09:08.124Z,14.99
2018-06-16T02:10:08.118Z,14.97
2018-06-16T02:11:08.111Z,15.03
2018-06-16T02:12:08.105Z,14.99
2018-06-16T02:13:08.099Z,15.09
2018-06-16T02:14:08.092Z,15.03
2018-06-16T02:15:08.086Z,14.97
2018-06-16T02:16:08.084Z,14.97
2018-06-16T02:17:08.076Z,14.96
2018-06-16T02:18:08.066Z,14.96
2018-06-16T02:19:08.263Z,14.97
2018-06-16T02:20:08.054Z,14.97
2018-06-16T02:21:08.047Z,14.96
2018-06-16T02:22:08.040Z,14.92
2018-06-16T02:23:08.038Z,14.92
2018-06-16T02:24:08.028Z,14.92
2018-06-16T02:25:08.022Z,14.82
2018-06-16T02:26:08.015Z,14.77
2018-06-16T02:27:08.008Z,14.79
2018-06-16T02:28:08.003Z,14.81
2018-06-16T02:29:07.995Z,14.81
2018-06-16T02:30:07.992Z,14.89
2018-06-16T02:31:07.985Z,14.89
2018-06-16T02:32:07.976Z,14.84
2018-06-16T02:33:07.970Z,14.84
2018-06-16T02:34:07.963Z,14.86
2018-06-16T02:35:07.956Z,14.81
2018-06-16T02:36:07.950Z,14.85
2018-06-16T02:37:07.944Z,14.84
2018-06-16T02:38:07.936Z,14.91
2018-06-16T02:39:07.930Z,14.82
2018-06-16T02:40:07.924Z,14.81
2018-06-16T02:41:07.918Z,14.86
2018-06-16T02:42:07.913Z,14.81
2018-06-16T02:43:07.906Z,14.82
2018-06-16T02:44:07.898Z,14.81
2018-06-16T02:45:08.095Z,14.84
2018-06-16T02:46:07.888Z,14.85
2018-06-16T02:47:07.877Z,14.84
2018-06-16T02:48:07.872Z,14.77
2018-06-16T02:49:07.865Z,14.81
2018-06-16T02:50:07.895Z,14.79
2018-06-16T02:51:07.855Z,14.81
2018-06-16T02:52:07.849Z,14.79
2018-06-16T02:53:07.839Z,14.91
2018-06-16T02:54:07.832Z,14.89
2018-06-16T02:55:07.825Z,14.85
2018-06-16T02:56:07.820Z,14.85
2018-06-16T02:57:07.813Z,14.89
2018-06-16T02:58:07.805Z,14.97
2018-06-16T02:59:07.799Z,14.96
2018-06-16T03:00:07.793Z,14.91
2018-06-16T03:01:07.787Z,14.99
2018-06-16T03:02:07.779Z,14.97
2018-06-16T03:03:07.773Z,14.92
2018-06-16T03:04:07.976Z,14.96
2018-06-16T03:05:07.761Z,14.92
2018-06-16T03:06:07.756Z,14.89
2018-06-16T03:07:07.749Z,14.91
2018-06-16T03:08:07.740Z,14.77
2018-06-16T03:09:07.736Z,14.79
2018-06-16T03:10:07.727Z,14.73
2018-06-16T03:11:07.720Z,14.68
2018-06-16T03:12:07.714Z,14.63
2018-06-16T03:13:07.709Z,14.65
2018-06-16T03:14:07.701Z,14.72
2018-06-16T03:15:07.697Z,14.72
2018-06-16T03:16:07.699Z,14.77
2018-06-16T03:17:07.688Z,14.78
2018-06-16T03:18:07.674Z,14.70
2018-06-16T03:19:07.677Z,14.70
2018-06-16T03:20:07.661Z,14.79
2018-06-16T03:21:07.654Z,14.82
2018-06-16T03:22:07.647Z,14.73
2018-06-16T03:23:07.640Z,14.73
2018-06-16T03:24:07.639Z,14.72
2018-06-16T03:25:07.627Z,14.79
2018-06-16T03:26:07.625Z,14.72
2018-06-16T03:27:07.613Z,14.73
2018-06-16T03:28:07.606Z,14.69
2018-06-16T03:29:07.600Z,14.70
2018-06-16T03:30:07.597Z,14.73
2018-06-16T03:31:07.588Z,14.68
2018-06-16T03:32:07.579Z,14.69
2018-06-16T03:33:07.575Z,14.69
2018-06-16T03:34:07.564Z,14.68
2018-06-16T03:35:07.560Z,14.73
2018-06-16T03:36:07.551Z,14.68
2018-06-16T03:37:07.545Z,14.69
2018-06-16T03:38:07.537Z,14.63
2018-06-16T03:39:07.533Z,14.72
2018-06-16T03:40:07.527Z,14.68
2018-06-16T03:41:07.517Z,14.63
2018-06-16T03:42:07.510Z,14.62
2018-06-16T03:43:07.506Z,14.63
2018-06-16T03:44:07.497Z,14.58
2018-06-16T03:45:07.492Z,14.62
2018-06-16T03:46:07.483Z,14.50
2018-06-16T03:47:07.478Z,14.62
2018-06-16T03:48:07.471Z,14.54
2018-06-16T03:49:07.469Z,14.59
2018-06-16T03:50:07.462Z,14.59
2018-06-16T03:51:07.453Z,14.63
2018-06-16T03:52:07.443Z,14.63
2018-06-16T03:53:07.436Z,14.55
2018-06-16T03:54:07.446Z,14.60
2018-06-16T03:55:07.426Z,14.66
2018-06-16T03:56:07.416Z,14.66
2018-06-16T03:57:07.410Z,14.72
2018-06-16T03:58:07.402Z,14.85
2018-06-16T03:59:07.396Z,14.79
2018-06-16T04:00:07.390Z,14.81
2018-06-16T04:01:07.383Z,14.94
2018-06-16T04:02:07.388Z,14.94
2018-06-16T04:03:07.372Z,14.86
2018-06-16T04:04:07.364Z,14.96
2018-06-16T04:05:07.357Z,15.04
2018-06-16T04:06:07.354Z,14.99
2018-06-16T04:07:07.344Z,14.97
2018-06-16T04:08:07.340Z,15.03
2018-06-16T04:09:07.332Z,15.02
2018-06-16T04:10:07.326Z,15.03
2018-06-16T04:11:07.317Z,15.07
2018-06-16T04:12:07.316Z,15.10
2018-06-16T04:13:07.304Z,15.09
2018-06-16T04:14:07.299Z,15.04
2018-06-16T04:15:07.295Z,15.10
2018-06-16T04:16:07.286Z,15.18
2018-06-16T04:17:07.279Z,15.18
2018-06-16T04:18:07.271Z,15.15
2018-06-16T04:19:07.269Z,15.17
2018-06-16T04:20:07.263Z,15.18
2018-06-16T04:21:07.253Z,15.15
2018-06-16T04:22:07.247Z,15.18
2018-06-16T04:23:07.242Z,15.22
2018-06-16T04:24:07.391Z,15.17
2018-06-16T04:25:07.228Z,15.24
2018-06-16T04:26:07.222Z,15.28
2018-06-16T04:27:07.218Z,15.24
2018-06-16T04:28:07.210Z,15.28
2018-06-16T04:29:07.209Z,15.29
2018-06-16T04:30:07.399Z,15.27
2018-06-16T04:31:07.393Z,15.39
2018-06-16T04:32:07.186Z,15.36
2018-06-16T04:33:07.183Z,15.37
2018-06-16T04:34:07.174Z,15.40
2018-06-16T04:35:07.174Z,15.46
2018-06-16T04:36:07.162Z,15.44
2018-06-16T04:37:07.155Z,15.46
2018-06-16T04:38:07.149Z,15.61
2018-06-16T04:39:07.143Z,15.58
2018-06-16T04:40:07.142Z,15.58
2018-06-16T04:41:07.133Z,15.57
2018-06-16T04:42:07.125Z,15.59
2018-06-16T04:43:07.120Z,15.67
2018-06-16T04:44:07.115Z,15.64
2018-06-16T04:45:07.109Z,15.65
2018-06-16T04:46:07.112Z,15.64
2018-06-16T04:47:07.137Z,15.58
2018-06-16T04:48:07.091Z,15.68
2018-06-16T04:49:07.091Z,15.61
2018-06-16T04:50:07.079Z,15.76
2018-06-16T04:51:07.074Z,15.65
2018-06-16T04:52:07.072Z,15.72
2018-06-16T04:53:07.063Z,15.72
2018-06-16T04:54:07.056Z,15.79
2018-06-16T04:55:07.058Z,15.77
2018-06-16T04:56:07.251Z,15.82
2018-06-16T04:57:07.041Z,15.77
2018-06-16T04:58:07.038Z,15.80
2018-06-16T04:59:07.029Z,15.79
2018-06-16T05:00:07.023Z,15.82
2018-06-16T05:01:07.017Z,15.80
2018-06-16T05:02:07.012Z,15.79
2018-06-16T05:03:07.005Z,15.83
2018-06-16T05:04:07.005Z,15.75
2018-06-16T05:05:06.995Z,15.82
2018-06-16T05:06:06.991Z,15.83
2018-06-16T05:07:06.982Z,15.90
2018-06-16T05:08:06.977Z,15.91
2018-06-16T05:09:06.972Z,15.84
2018-06-16T05:10:06.965Z,15.98
2018-06-16T05:11:06.961Z,16.00
2018-06-16T05:12:06.955Z,16.01
2018-06-16T05:13:07.158Z,16.04
2018-06-16T05:14:06.942Z,16.10
2018-06-16T05:15:06.939Z,16.10
2018-06-16T05:16:06.933Z,16.12
2018-06-16T05:17:06.934Z,16.12
2018-06-16T05:18:06.926Z,16.29
2018-06-16T05:19:06.916Z,16.29
2018-06-16T05:20:06.916Z,16.36
2018-06-16T05:21:06.909Z,16.41
2018-06-16T05:22:06.903Z,16.46
2018-06-16T05:23:06.901Z,16.49
2018-06-16T05:24:06.891Z,16.58
2018-06-16T05:25:06.888Z,16.57
2018-06-16T05:26:06.884Z,16.60
2018-06-16T05:27:06.879Z,16.66
2018-06-16T05:28:06.870Z,16.71
2018-06-16T05:29:06.869Z,16.66
2018-06-16T05:30:06.861Z,16.71
2018-06-16T05:31:06.856Z,16.75
2018-06-16T05:32:06.851Z,16.86
2018-06-16T05:33:06.847Z,16.83
2018-06-16T05:34:06.841Z,16.86
2018-06-16T05:35:06.837Z,16.91
2018-06-16T05:36:06.832Z,16.96
2018-06-16T05:37:06.828Z,17.02
2018-06-16T05:38:06.827Z,17.04
2018-06-16T05:39:06.819Z,17.19
2018-06-16T05:40:06.820Z,17.19
2018-06-16T05:41:06.815Z,17.27
2018-06-16T05:42:06.805Z,17.27
2018-06-16T05:43:06.805Z,17.27
2018-06-16T05:44:06.799Z,17.44
2018-06-16T05:45:06.794Z,17.54
2018-06-16T05:46:06.792Z,17.64
2018-06-16T05:47:06.785Z,17.79
2018-06-16T05:48:06.782Z,17.79
2018-06-16T05:49:06.783Z,17.89
2018-06-16T05:50:06.774Z,17.89
2018-06-16T05:51:06.770Z,18.00
2018-06-16T05:52:06.767Z,17.92
2018-06-16T05:53:06.771Z,17.95
2018-06-16T05:54:06.786Z,17.94
2018-06-16T05:55:06.761Z,18.07
2018-06-16T05:56:06.754Z,18.04
2018-06-16T05:57:06.752Z,18.04
2018-06-16T05:58:06.746Z,18.08
2018-06-16T05:59:06.743Z,18.03
2018-06-16T06:00:06.744Z,18.00
2018-06-16T06:01:06.741Z,18.10
2018-06-16T06:02:06.733Z,18.05
2018-06-16T06:03:06.731Z,17.90
2018-06-16T06:04:06.726Z,18.07
2018-06-16T06:05:06.723Z,18.08
2018-06-16T06:06:06.724Z,17.89
2018-06-16T06:07:06.722Z,17.90
2018-06-16T06:08:06.718Z,17.89
2018-06-16T06:09:06.710Z,17.82
2018-06-16T06:10:06.708Z,17.87
2018-06-16T06:11:06.704Z,17.82
2018-06-16T06:12:06.706Z,17.76
2018-06-16T06:13:06.718Z,17.82
2018-06-16T06:14:06.692Z,17.89
2018-06-16T06:15:06.690Z,18.08
2018-06-16T06:16:06.686Z,18.22
2018-06-16T06:17:06.683Z,18.29
2018-06-16T06:18:06.682Z,18.31
2018-06-16T06:19:06.676Z,18.35
2018-06-16T06:20:06.675Z,18.49
2018-06-16T06:21:06.671Z,18.50
2018-06-16T06:22:06.665Z,18.50
2018-06-16T06:23:06.670Z,18.49
2018-06-16T06:24:06.660Z,18.56
2018-06-16T06:25:06.657Z,18.78
2018-06-16T06:27:06.650Z,18.92
2018-06-16T06:28:06.652Z,18.96
2018-06-16T06:29:06.647Z,18.99
2018-06-16T06:30:06.640Z,19.26
2018-06-16T06:31:06.638Z,19.27
2018-06-16T06:32:06.685Z,19.31
2018-06-16T06:33:06.633Z,19.44
2018-06-16T06:34:06.629Z,19.45
2018-06-16T06:35:06.634Z,19.37
2018-06-16T06:36:06.627Z,19.41
2018-06-16T06:37:06.649Z,19.45
2018-06-16T06:38:06.621Z,19.52
2018-06-16T06:39:06.617Z,19.66
2018-06-16T06:40:06.619Z,19.73
2018-06-16T06:41:06.613Z,19.74
2018-06-16T06:42:06.614Z,19.94
2018-06-16T06:43:06.608Z,19.85
2018-06-16T06:44:06.606Z,19.89
2018-06-16T06:45:06.607Z,19.91
2018-06-16T06:46:06.606Z,20.07
2018-06-16T06:47:06.600Z,19.91
2018-06-16T06:48:06.598Z,19.79
2018-06-16T06:49:06.596Z,19.62
2018-06-16T06:50:06.594Z,19.49
2018-06-16T06:51:06.592Z,19.51
2018-06-16T06:52:06.590Z,19.56
2018-06-16T06:53:06.589Z,19.67
2018-06-16T06:54:06.587Z,19.82
2018-06-16T06:55:06.587Z,19.88
2018-06-16T06:56:06.583Z,19.88
2018-06-16T06:57:06.580Z,19.71
2018-06-16T06:58:06.581Z,19.86
2018-06-16T06:59:06.577Z,19.91
2018-06-16T07:00:06.576Z,19.91
2018-06-16T07:01:06.580Z,20.04
2018-06-16T07:02:06.574Z,20.18
2018-06-16T07:03:06.571Z,20.22
2018-06-16T07:04:06.612Z,20.24
2018-06-16T07:05:06.566Z,20.24
2018-06-16T07:06:06.564Z,20.24
2018-06-16T07:07:06.563Z,20.13
2018-06-16T07:08:06.562Z,20.16
2018-06-16T07:09:06.564Z,20.22
2018-06-16T07:10:06.558Z,20.24
2018-06-16T07:11:06.556Z,20.29
2018-06-16T07:12:06.964Z,20.29
2018-06-16T07:13:06.554Z,20.43
2018-06-16T07:14:06.552Z,20.59
2018-06-16T07:15:06.552Z,20.72
2018-06-16T07:16:06.551Z,20.87
2018-06-16T07:17:06.550Z,21.00
2018-06-16T07:18:06.549Z,21.22
2018-06-16T07:19:06.550Z,21.32
2018-06-16T07:20:06.549Z,21.48
2018-06-16T07:21:06.549Z,21.48
2018-06-16T07:22:06.550Z,21.40
2018-06-16T07:23:06.549Z,21.35
2018-06-16T07:24:06.550Z,21.24
2018-06-16T07:25:06.549Z,21.11
2018-06-16T07:26:06.548Z,20.95
2018-06-16T07:27:06.575Z,20.99
2018-06-16T07:28:06.549Z,21.00
2018-06-16T07:29:06.583Z,21.07
2018-06-16T07:30:06.549Z,20.99
2018-06-16T07:32:06.558Z,21.09
2018-06-16T07:33:06.562Z,21.21
2018-06-16T07:34:06.550Z,21.37
2018-06-16T07:35:06.552Z,21.30
2018-06-16T07:36:06.581Z,21.25
2018-06-16T07:37:06.554Z,21.24
2018-06-16T07:38:06.553Z,21.12
2018-06-16T07:39:06.554Z,21.06
2018-06-16T07:40:06.555Z,21.03
2018-06-16T07:41:06.558Z,21.02
2018-06-16T07:42:06.555Z,20.87
2018-06-16T07:43:06.763Z,20.97
2018-06-16T07:44:06.556Z,21.03
2018-06-16T07:45:06.563Z,21.15
2018-06-16T07:46:06.557Z,21.11
2018-06-16T07:47:06.560Z,21.29
2018-06-16T07:48:06.559Z,21.35
2018-06-16T07:49:06.560Z,21.20
2018-06-16T07:50:06.561Z,21.24
2018-06-16T07:51:06.562Z,21.43
2018-06-16T07:52:06.568Z,21.35
2018-06-16T07:53:06.565Z,21.45
2018-06-16T07:54:06.568Z,21.66
2018-06-16T07:55:06.770Z,21.69
2018-06-16T07:56:06.574Z,21.54
2018-06-16T07:57:06.572Z,21.51
2018-06-16T07:58:06.578Z,21.48
2018-06-16T07:59:06.574Z,21.35
2018-06-16T08:00:06.577Z,21.43
2018-06-16T08:01:06.578Z,21.45
2018-06-16T08:02:06.578Z,21.45
2018-06-16T08:03:06.580Z,21.58
2018-06-16T08:04:06.587Z,21.40
2018-06-16T08:05:06.585Z,21.39
2018-06-16T08:06:06.591Z,21.62
2018-06-16T08:07:06.591Z,21.80
2018-06-16T08:08:06.592Z,22.06
2018-06-16T08:09:06.599Z,22.36
2018-06-16T08:10:06.600Z,22.59
2018-06-16T08:11:06.603Z,22.75
2018-06-16T08:12:06.618Z,22.73
2018-06-16T08:13:06.613Z,22.96
2018-06-16T08:14:06.820Z,23.17
2018-06-16T08:15:06.627Z,23.41
2018-06-16T08:16:06.631Z,23.69
2018-06-16T08:17:06.637Z,23.81
2018-06-16T08:18:06.724Z,24.08
2018-06-16T08:19:06.651Z,24.05
2018-06-16T08:20:06.666Z,24.03
2018-06-16T08:21:06.667Z,24.30
2018-06-16T08:22:06.674Z,24.42
2018-06-16T08:23:06.683Z,24.57
2018-06-16T08:24:06.894Z,25.13
2018-06-16T08:25:06.706Z,25.18
2018-06-16T08:26:06.711Z,25.43
2018-06-16T08:27:06.719Z,25.48
2018-06-16T08:28:06.728Z,25.03
2018-06-16T08:29:06.738Z,24.81
2018-06-16T08:30:06.754Z,24.74
2018-06-16T08:31:06.759Z,24.36
2018-06-16T08:32:06.773Z,24.39
2018-06-16T08:33:06.779Z,24.38
2018-06-16T08:34:06.780Z,24.17
2018-06-16T08:35:06.789Z,23.95
2018-06-16T08:36:06.796Z,23.83
2018-06-16T08:37:06.811Z,23.87
2018-06-16T08:38:06.809Z,23.83
2018-06-16T08:39:06.814Z,23.61
2018-06-16T08:40:06.823Z,23.44
2018-06-16T08:41:06.827Z,23.12
2018-06-16T08:42:06.831Z,22.80
2018-06-16T08:43:06.840Z,22.63
2018-06-16T08:44:06.841Z,22.48
2018-06-16T08:45:06.849Z,22.25
2018-06-16T08:46:06.850Z,22.18
2018-06-16T08:47:06.852Z,22.14
2018-06-16T08:48:06.861Z,22.15
2018-06-16T08:49:06.857Z,22.10
2018-06-16T08:50:06.860Z,22.07
2018-06-16T08:51:06.867Z,22.00
2018-06-16T08:52:07.071Z,21.93
2018-06-16T08:53:06.866Z,21.79
2018-06-16T08:54:06.873Z,21.72
2018-06-16T08:55:06.869Z,21.72
2018-06-16T08:56:06.873Z,21.92
2018-06-16T08:57:06.874Z,22.10
2018-06-16T08:58:06.880Z,22.43
2018-06-16T08:59:06.878Z,22.84
2018-06-16T09:00:06.886Z,23.08
2018-06-16T09:01:06.885Z,23.39
2018-06-16T09:02:06.889Z,23.69
2018-06-16T09:03:06.894Z,23.87
2018-06-16T09:04:06.899Z,23.93
2018-06-16T09:05:06.906Z,23.88
2018-06-16T09:06:06.913Z,24.01
2018-06-16T09:07:06.917Z,24.13
2018-06-16T09:08:06.924Z,24.40
2018-06-16T09:09:06.934Z,24.60
2018-06-16T09:10:06.939Z,24.57
2018-06-16T09:11:06.947Z,24.80
2018-06-16T09:12:06.955Z,24.89
2018-06-16T09:13:06.964Z,25.06
2018-06-16T09:14:06.972Z,25.22
2018-06-16T09:15:06.981Z,25.32
2018-06-16T09:16:07.194Z,25.32
2018-06-16T09:17:07.005Z,25.48
2018-06-16T09:18:07.012Z,25.66
2018-06-16T09:19:07.023Z,26.03
2018-06-16T09:20:07.238Z,25.88
2018-06-16T09:21:07.045Z,25.65
2018-06-16T09:22:07.056Z,25.59
2018-06-16T09:23:07.066Z,25.66
2018-06-16T09:24:07.081Z,25.65
2018-06-16T09:25:07.099Z,25.90
2018-06-16T09:26:07.106Z,26.13
2018-06-16T09:27:07.112Z,26.16
2018-06-16T09:28:07.186Z,26.15
2018-06-16T09:29:07.137Z,26.06
2018-06-16T09:30:07.147Z,26.31
2018-06-16T09:31:07.160Z,26.48
2018-06-16T09:33:07.185Z,26.60
2018-06-16T09:34:07.197Z,26.63
2018-06-16T09:35:07.214Z,26.56
2018-06-16T09:36:07.270Z,26.43
2018-06-16T09:37:07.238Z,25.99
2018-06-16T09:38:07.245Z,25.98
2018-06-16T09:39:07.263Z,26.05
2018-06-16T09:40:07.269Z,25.78
2018-06-16T09:41:07.281Z,25.43
2018-06-16T09:42:07.354Z,25.26
2018-06-16T09:43:07.310Z,25.23
2018-06-16T09:44:07.318Z,25.14
2018-06-16T09:45:07.322Z,25.03
2018-06-16T09:46:07.327Z,25.11
2018-06-16T09:47:07.338Z,25.04
2018-06-16T09:48:07.407Z,24.81
2018-06-16T09:49:07.353Z,24.35
2018-06-16T09:50:07.360Z,23.99
2018-06-16T09:51:07.370Z,23.59
2018-06-16T09:52:07.380Z,23.63
2018-06-16T09:53:07.386Z,23.91
2018-06-16T09:54:07.388Z,24.03
2018-06-16T09:55:07.395Z,24.30
2018-06-16T09:56:07.406Z,24.45
2018-06-16T09:57:07.408Z,24.33
2018-06-16T09:58:07.413Z,24.28
2018-06-16T09:59:07.419Z,24.42
2018-06-16T10:00:07.425Z,24.58
2018-06-16T10:01:07.432Z,24.80
2018-06-16T10:02:07.436Z,25.07
2018-06-16T10:03:07.443Z,25.26
2018-06-16T10:04:07.448Z,25.40
2018-06-16T10:05:07.467Z,25.54
2018-06-16T10:06:07.464Z,25.26
2018-06-16T10:07:07.468Z,25.31
2018-06-16T10:08:07.477Z,25.21
2018-06-16T10:09:07.482Z,25.63
2018-06-16T10:10:07.691Z,25.98
2018-06-16T10:11:07.497Z,26.41
2018-06-16T10:12:07.510Z,26.59
2018-06-16T10:13:07.514Z,26.73
2018-06-16T10:14:07.522Z,26.96
2018-06-16T10:15:07.531Z,27.20
2018-06-16T10:16:07.544Z,27.32
2018-06-16T10:17:07.551Z,27.11
2018-06-16T10:18:07.562Z,27.15
2018-06-16T10:19:07.570Z,27.15
2018-06-16T10:20:07.580Z,27.14
2018-06-16T10:21:07.593Z,26.89
2018-06-16T10:22:07.601Z,26.77
2018-06-16T10:23:07.609Z,26.53
2018-06-16T10:24:07.619Z,26.65
2018-06-16T10:25:07.629Z,26.66
2018-06-16T10:26:07.637Z,26.92
2018-06-16T10:27:07.647Z,26.96
2018-06-16T10:28:07.665Z,27.12
2018-06-16T10:29:07.671Z,27.30
2018-06-16T10:30:07.677Z,27.54
2018-06-16T10:31:07.692Z,27.64
2018-06-16T10:32:07.700Z,27.90
2018-06-16T10:33:07.714Z,27.96
2018-06-16T10:34:07.722Z,27.80
2018-06-16T10:35:07.733Z,27.29
2018-06-16T10:36:07.745Z,27.21
2018-06-16T10:37:07.757Z,27.11
2018-06-16T10:38:07.765Z,27.10
2018-06-16T10:39:07.775Z,26.80
2018-06-16T10:40:07.788Z,26.55
2018-06-16T10:41:07.796Z,26.38
2018-06-16T10:42:07.806Z,26.13
2018-06-16T10:43:07.812Z,26.10
2018-06-16T10:44:07.822Z,25.98
2018-06-16T10:45:07.833Z,25.84
2018-06-16T10:46:07.837Z,25.70
2018-06-16T10:47:07.850Z,25.50
2018-06-16T10:48:07.854Z,25.22
2018-06-16T10:49:07.865Z,25.10
2018-06-16T10:50:07.868Z,25.08
2018-06-16T10:51:07.875Z,25.33
2018-06-16T10:52:07.879Z,25.68
2018-06-16T10:53:07.890Z,26.22
2018-06-16T10:54:07.893Z,26.78
2018-06-16T10:55:07.904Z,27.32
2018-06-16T10:56:07.912Z,27.67
2018-06-16T10:57:07.921Z,27.74
2018-06-16T10:58:07.932Z,27.77
2018-06-16T10:59:07.939Z,27.58
2018-06-16T11:00:07.949Z,27.11
2018-06-16T11:01:07.957Z,26.77
2018-06-16T11:02:07.966Z,26.36
2018-06-16T11:03:07.977Z,25.87
2018-06-16T11:04:07.979Z,25.62
2018-06-16T11:05:07.994Z,25.48
2018-06-16T11:06:07.997Z,25.44
2018-06-16T11:07:07.998Z,25.25
2018-06-16T11:08:08.005Z,25.28
2018-06-16T11:09:08.010Z,25.08
2018-06-16T11:10:08.015Z,24.85
2018-06-16T11:11:08.023Z,24.68
2018-06-16T11:12:08.024Z,24.30
2018-06-16T11:13:08.029Z,24.21
2018-06-16T11:14:08.031Z,24.11
2018-06-16T11:15:08.034Z,23.87
2018-06-16T11:16:08.038Z,23.73
2018-06-16T11:17:08.040Z,23.68
2018-06-16T11:18:08.248Z,23.68
2018-06-16T11:19:08.067Z,23.66
2018-06-16T11:20:08.048Z,23.69
2018-06-16T11:21:08.054Z,23.86
2018-06-16T11:22:08.050Z,23.93
2018-06-16T11:23:08.056Z,24.01
2018-06-16T11:24:08.058Z,24.48
2018-06-16T11:25:08.058Z,25.16
2018-06-16T11:26:08.063Z,25.73
2018-06-16T11:27:08.066Z,26.13
2018-06-16T11:28:08.072Z,26.45
2018-06-16T11:29:08.081Z,26.51
2018-06-16T11:30:08.083Z,26.71
2018-06-16T11:31:08.094Z,26.68
2018-06-16T11:32:08.097Z,26.55
2018-06-16T11:33:08.107Z,26.55
2018-06-16T11:34:08.114Z,26.44
2018-06-16T11:35:08.119Z,26.40
2018-06-16T11:36:08.126Z,26.63
2018-06-16T11:37:08.135Z,26.71
2018-06-16T11:38:08.143Z,26.40
2018-06-16T11:39:08.150Z,26.34
2018-06-16T11:40:08.155Z,25.96
2018-06-16T11:41:08.167Z,26.02
2018-06-16T11:42:08.169Z,26.19
2018-06-16T11:43:08.177Z,26.26
2018-06-16T11:44:08.185Z,26.55
2018-06-16T11:45:08.196Z,26.59
2018-06-16T11:47:08.211Z,26.37
2018-06-16T11:48:08.216Z,26.22
2018-06-16T11:49:08.226Z,26.02
2018-06-16T11:50:08.232Z,25.78
2018-06-16T11:51:08.233Z,25.46
2018-06-16T11:52:08.239Z,25.43
2018-06-16T11:53:08.245Z,25.77
2018-06-16T11:54:08.249Z,26.23
2018-06-16T11:55:08.257Z,26.66
2018-06-16T11:56:08.264Z,26.92
2018-06-16T11:57:08.273Z,27.03
2018-06-16T11:58:08.274Z,27.20
2018-06-16T11:59:08.281Z,27.45
2018-06-16T12:00:08.293Z,27.60
2018-06-16T12:01:08.297Z,28.05
2018-06-16T12:02:08.304Z,28.20
2018-06-16T12:03:08.340Z,28.15
2018-06-16T12:04:08.318Z,27.95
2018-06-16T12:05:08.331Z,27.73
2018-06-16T12:06:08.337Z,27.90
2018-06-16T12:07:08.343Z,28.23
2018-06-16T12:08:08.352Z,28.44
2018-06-16T12:09:08.367Z,28.38
2018-06-16T12:10:08.371Z,28.51
2018-06-16T12:11:08.380Z,28.56
2018-06-16T12:12:08.391Z,28.60
2018-06-16T12:13:08.604Z,28.45
2018-06-16T12:14:08.411Z,28.37
2018-06-16T12:15:08.422Z,28.20
2018-06-16T12:16:08.432Z,28.25
2018-06-16T12:17:08.445Z,28.38
2018-06-16T12:18:08.456Z,28.54
2018-06-16T12:19:08.468Z,28.93
2018-06-16T12:20:08.475Z,29.13
2018-06-16T12:21:08.486Z,29.17
2018-06-16T12:22:08.497Z,29.08
2018-06-16T12:23:08.712Z,29.08
2018-06-16T12:24:08.521Z,29.44
2018-06-16T12:25:08.533Z,29.81
2018-06-16T12:26:08.547Z,30.32
2018-06-16T12:27:08.761Z,30.59
2018-06-16T12:28:08.570Z,30.66
2018-06-16T12:29:08.583Z,30.88
2018-06-16T12:30:08.601Z,30.62
2018-06-16T12:31:08.609Z,30.18
2018-06-16T12:32:08.620Z,29.69
2018-06-16T12:33:08.632Z,29.34
2018-06-16T12:34:08.642Z,28.89
2018-06-16T12:35:08.654Z,28.38
2018-06-16T12:36:08.664Z,28.20
2018-06-16T12:37:08.684Z,28.33
2018-06-16T12:38:08.684Z,28.22
2018-06-16T12:39:08.694Z,28.07
2018-06-16T12:40:08.706Z,27.68
2018-06-16T12:41:08.715Z,27.22
2018-06-16T12:42:08.722Z,27.14
2018-06-16T12:43:08.733Z,27.36
2018-06-16T12:44:08.740Z,27.44
2018-06-16T12:45:08.749Z,27.25
2018-06-16T12:46:08.757Z,27.35
2018-06-16T12:47:08.765Z,27.73
2018-06-16T12:48:08.780Z,28.32
2018-06-16T12:49:08.784Z,28.78
2018-06-16T12:50:08.792Z,28.94
2018-06-16T12:51:08.802Z,28.81
2018-06-16T12:52:08.811Z,28.82
2018-06-16T12:53:08.820Z,28.75
2018-06-16T12:54:08.837Z,28.75
2018-06-16T12:55:08.842Z,28.81
2018-06-16T12:56:08.852Z,28.89